Time;durP1;ratioP1;P1;durP2;ratioP2;P2;SDS_P1;SDS_P2;PMS_P1;PMS_P2;Temp;Humidity;BMP_temperature;BMP_pressure;BME280_temperature;BME280_humidity;BME280_pressure;Samples;Min_cycle;Max_cycle;Signal;HPM_P1;HPM_P2
2021/12/18 00:01:55;;;;;;;62.63;25.52;;;;;;;6.83;100.00;103985.72;5199159;28;20087;-73
2021/12/18 00:04:25;;;;;;;69.63;28.17;;;;;;;6.88;100.00;103978.38;5199845;28;20113;-73
2021/12/18 00:06:57;;;;;;;67.63;26.80;;;;;;;6.86;100.00;103984.69;5200165;28;20021;-73
2021/12/18 00:09:30;;;;;;;72.78;27.80;;;;;;;6.86;100.00;103988.22;5200484;28;20075;-74
2021/12/18 00:12:02;;;;;;;70.82;29.50;;;;;;;6.87;100.00;103979.28;5200352;28;20128;-73
2021/12/18 00:14:33;;;;;;;76.13;30.38;;;;;;;6.88;100.00;103980.19;5199917;28;20108;-73
2021/12/18 00:17:04;;;;;;;68.53;26.88;;;;;;;6.91;100.00;103977.34;5200287;28;20057;-73
2021/12/18 00:19:35;;;;;;;70.15;26.67;;;;;;;6.89;100.00;103974.75;5200272;28;20434;-73
2021/12/18 00:22:05;;;;;;;73.53;27.80;;;;;;;6.90;100.00;103975.63;5200386;28;20029;-74
2021/12/18 00:24:36;;;;;;;74.10;26.65;;;;;;;6.87;100.00;103973.94;5199987;28;20024;-73
2021/12/18 00:27:06;;;;;;;68.75;26.27;;;;;;;6.86;100.00;103972.22;5199136;28;20021;-73
2021/12/18 00:29:37;;;;;;;67.75;25.75;;;;;;;6.87;100.00;103978.41;5199736;28;20021;-73
2021/12/18 00:32:08;;;;;;;68.00;27.65;;;;;;;6.84;100.00;103968.75;5200191;28;20504;-73
2021/12/18 00:34:39;;;;;;;66.38;25.15;;;;;;;6.82;100.00;103967.94;5199863;28;20030;-73
2021/12/18 00:37:09;;;;;;;63.70;27.05;;;;;;;6.83;100.00;103966.13;5202295;28;20025;-73
2021/12/18 00:39:48;;;;;;;62.75;25.77;;;;;;;6.84;100.00;103960.75;5204595;28;20416;-73
2021/12/18 00:45:11;;;;;;;64.65;25.02;;;;;;;6.84;100.00;103955.41;5203824;28;20052;-73
2021/12/18 00:47:43;;;;;;;58.28;25.48;;;;;;;6.84;100.00;103952.75;5204047;28;20046;-73
2021/12/18 00:50:18;;;;;;;60.10;24.20;;;;;;;6.86;100.00;103952.66;5203836;28;20112;-73
2021/12/18 00:52:49;;;;;;;57.17;22.98;;;;;;;6.86;100.00;103956.19;5213192;28;20059;-73
2021/12/18 00:55:20;;;;;;;55.22;23.13;;;;;;;6.84;100.00;103955.41;5207806;28;20056;-73
2021/12/18 00:57:52;;;;;;;57.30;22.92;;;;;;;6.86;100.00;103958.00;5204315;28;20029;-73
2021/12/18 01:00:24;;;;;;;58.78;23.92;;;;;;;6.87;100.00;103955.25;5202536;28;20029;-73
2021/12/18 01:02:59;;;;;;;63.40;24.42;;;;;;;6.87;100.00;103952.59;5203741;28;20514;-73
2021/12/18 01:05:32;;;;;;;62.70;24.60;;;;;;;6.89;100.00;103952.56;5203205;28;20025;-73
2021/12/18 01:08:03;;;;;;;62.92;25.83;;;;;;;6.86;100.00;103958.88;5202477;28;20109;-73
2021/12/18 01:13:28;;;;;;;68.13;25.10;;;;;;;6.81;100.00;103960.88;5203283;28;20087;-73
2021/12/18 01:16:08;;;;;;;56.88;22.70;;;;;;;6.80;100.00;103956.47;5203268;28;20025;-73
2021/12/18 01:24:17;;;;;;;63.88;22.92;;;;;;;6.80;100.00;103966.28;5203182;28;20489;-73
2021/12/18 01:26:47;;;;;;;60.35;25.13;;;;;;;6.78;100.00;103955.69;5203589;28;20032;-73
2021/12/18 01:29:18;;;;;;;61.92;24.85;;;;;;;6.81;100.00;103960.88;5203319;28;20108;-73
2021/12/18 01:31:48;;;;;;;66.55;22.95;;;;;;;6.82;100.00;103959.06;5202105;28;20044;-73
2021/12/18 01:34:19;;;;;;;58.42;21.77;;;;;;;6.81;100.00;103963.53;5202721;28;20060;-71
2021/12/18 01:36:49;;;;;;;58.30;23.48;;;;;;;6.85;100.00;103964.28;5203054;28;20028;-73
2021/12/18 01:39:20;;;;;;;62.75;23.55;;;;;;;6.86;100.00;103968.69;5203164;28;20025;-73
2021/12/18 01:45:01;;;;;;;72.00;26.30;;;;;;;6.84;100.00;103968.75;5189938;28;20040;-73
2021/12/18 01:52:57;;;;;;;72.85;25.65;;;;;;;6.88;100.00;103969.50;5204461;28;20047;-73
2021/12/18 01:55:31;;;;;;;69.53;26.58;;;;;;;6.88;100.00;103967.69;5205354;28;20559;-73
2021/12/18 01:58:02;;;;;;;81.95;27.58;;;;;;;6.88;100.00;103969.50;5202967;28;20032;-73
2021/12/18 02:00:38;;;;;;;76.13;25.80;;;;;;;6.91;100.00;103969.34;5202903;28;20022;-73
2021/12/18 02:03:09;;;;;;;81.07;29.55;;;;;;;6.91;100.00;103966.69;5202050;28;20033;-71
2021/12/18 02:05:40;;;;;;;73.25;27.70;;;;;;;6.91;100.00;103962.22;5203259;28;20036;-72
2021/12/18 02:08:26;;;;;;;75.30;26.38;;;;;;;6.92;100.00;103953.25;5203165;28;20402;-72
2021/12/18 02:11:27;;;;;;;78.65;26.92;;;;;;;6.93;100.00;103951.50;5203101;28;20108;-73
2021/12/18 02:22:33;;;;;;;81.90;28.52;;;;;;;6.93;100.00;103947.00;5203031;28;20041;-73
2021/12/18 02:25:04;;;;;;;83.38;29.27;;;;;;;6.93;100.00;103943.47;5202303;28;20022;-73
2021/12/18 02:27:34;;;;;;;75.93;28.25;;;;;;;6.96;100.00;103943.31;5202694;28;20025;-73
2021/12/18 02:30:06;;;;;;;74.13;27.95;;;;;;;6.96;100.00;103944.19;5201446;28;20651;-73
2021/12/18 02:32:36;;;;;;;75.95;26.05;;;;;;;6.92;100.00;103941.72;5201237;28;20067;-73
2021/12/18 02:35:09;;;;;;;78.80;28.10;;;;;;;6.94;100.00;103940.75;5202158;28;20100;-73
2021/12/18 02:37:43;;;;;;;83.47;27.95;;;;;;;6.93;100.00;103940.81;5202569;28;20049;-72
2021/12/18 02:43:17;;;;;;;74.15;26.08;;;;;;;6.93;100.00;103939.00;5202499;28;20489;-73
2021/12/18 02:45:47;;;;;;;82.28;27.40;;;;;;;6.93;100.00;103939.00;5201594;28;20092;-73
2021/12/18 02:48:18;;;;;;;74.97;26.80;;;;;;;6.92;100.00;103937.25;5202192;28;20033;-73
2021/12/18 02:50:49;;;;;;;76.00;28.05;;;;;;;6.94;100.00;103939.88;5202029;28;20053;-73
2021/12/18 02:53:20;;;;;;;74.93;26.73;;;;;;;6.95;100.00;103937.13;5201854;28;20022;-73
2021/12/18 02:56:11;;;;;;;73.80;25.42;;;;;;;6.95;100.00;103941.59;5201658;28;20042;-73
2021/12/18 02:58:45;;;;;;;70.75;23.77;;;;;;;6.92;100.00;103939.06;5201007;28;20056;-72
2021/12/18 03:01:24;;;;;;;67.38;23.65;;;;;;;6.93;100.00;103944.34;5202260;28;20045;-73
2021/12/18 03:04:00;;;;;;;64.68;24.33;;;;;;;6.93;100.00;103946.16;5187557;28;20038;-73
2021/12/18 03:06:36;;;;;;;62.25;23.33;;;;;;;6.93;100.00;103938.16;5201393;28;20028;-73
2021/12/18 03:26:14;;;;;;;61.25;21.92;;;;;;;6.91;100.00;103908.81;5200835;28;20026;-73
2021/12/18 03:28:44;;;;;;;64.25;22.25;;;;;;;6.92;100.00;103921.22;5201198;28;20052;-73
2021/12/18 03:31:14;;;;;;;69.63;22.88;;;;;;;6.94;100.00;103919.38;5201369;28;20049;-73
2021/12/18 03:33:45;;;;;;;65.53;22.50;;;;;;;6.93;100.00;103925.66;5201511;28;20025;-73
2021/12/18 03:36:15;;;;;;;77.45;24.15;;;;;;;6.92;100.00;103921.22;5200897;28;20037;-73
2021/12/18 03:38:46;;;;;;;66.63;24.25;;;;;;;6.94;100.00;103927.38;5201367;28;20100;-73
2021/12/18 03:41:17;;;;;;;65.50;22.35;;;;;;;6.92;100.00;103921.22;5200865;28;20116;-73
2021/12/18 03:43:47;;;;;;;70.15;23.10;;;;;;;6.92;100.00;103931.91;5201272;28;20033;-73
2021/12/18 03:46:18;;;;;;;72.50;23.88;;;;;;;6.89;100.00;103921.38;5200758;28;20471;-72
2021/12/18 03:48:48;;;;;;;69.70;23.40;;;;;;;6.90;100.00;103930.25;5201072;28;20112;-73
2021/12/18 03:51:19;;;;;;;70.43;24.58;;;;;;;6.87;100.00;103923.25;5201261;28;20488;-73
2021/12/18 03:53:49;;;;;;;69.28;23.60;;;;;;;6.87;100.00;103925.91;5213835;28;20042;-73
2021/12/18 03:56:20;;;;;;;67.10;22.10;;;;;;;6.87;100.00;103920.56;5199374;28;20096;-72
2021/12/18 03:58:50;;;;;;;71.82;24.75;;;;;;;6.85;100.00;103916.25;5200957;28;20481;-73
2021/12/18 04:01:21;;;;;;;67.28;24.27;;;;;;;6.84;100.00;103920.72;5200724;28;20075;-73
2021/12/18 04:03:51;;;;;;;75.78;24.17;;;;;;;6.86;100.00;103917.97;5200924;28;20549;-73
2021/12/18 04:06:22;;;;;;;69.55;23.52;;;;;;;6.88;100.00;103921.47;5199944;28;20669;-72
2021/12/18 04:08:53;;;;;;;60.90;21.83;;;;;;;6.88;100.00;103919.66;5200882;28;20029;-73
2021/12/18 04:11:23;;;;;;;69.35;22.85;;;;;;;6.84;100.00;103920.72;5199949;28;20159;-73
2021/12/18 04:13:55;;;;;;;76.35;22.70;;;;;;;6.87;100.00;103917.03;5201136;28;20552;-73
2021/12/18 04:16:25;;;;;;;72.95;23.60;;;;;;;6.87;100.00;103922.38;5200176;28;20559;-73
2021/12/18 04:18:56;;;;;;;69.05;22.88;;;;;;;6.88;100.00;103910.78;5200647;28;20040;-73
2021/12/18 04:21:26;;;;;;;73.93;23.42;;;;;;;6.88;100.00;103918.78;5200717;28;20672;-73
2021/12/18 04:23:58;;;;;;;70.47;22.70;;;;;;;6.88;100.00;103917.00;5200787;28;20029;-73
2021/12/18 04:26:29;;;;;;;71.55;24.70;;;;;;;6.88;100.00;103921.47;5200112;28;20028;-73
2021/12/18 04:29:02;;;;;;;84.32;25.05;;;;;;;6.85;100.00;103921.59;5200444;28;20017;-73
2021/12/18 04:31:34;;;;;;;83.50;24.75;;;;;;;6.85;100.00;103922.44;5200699;28;20025;-73
2021/12/18 04:34:06;;;;;;;72.15;22.98;;;;;;;6.85;100.00;103924.25;5200826;28;20026;-73
2021/12/18 04:36:37;;;;;;;75.70;23.90;;;;;;;6.84;100.00;103928.72;5200378;28;20017;-73
2021/12/18 04:39:07;;;;;;;82.93;24.65;;;;;;;6.82;100.00;103921.72;5200589;28;20021;-73
2021/12/18 04:41:43;;;;;;;76.22;23.65;;;;;;;6.83;100.00;103924.34;5200139;28;20041;-73
2021/12/18 04:44:13;;;;;;;85.45;24.50;;;;;;;6.82;100.00;103922.56;5200082;28;20029;-73
2021/12/18 04:46:44;;;;;;;75.15;25.27;;;;;;;6.84;100.00;103926.06;5200250;28;20028;-72
2021/12/18 04:49:15;;;;;;;81.60;25.40;;;;;;;6.82;100.00;103927.91;5200301;28;20504;-73
2021/12/18 04:51:45;;;;;;;91.75;26.77;;;;;;;6.83;100.00;103923.44;5200666;28;20021;-73
2021/12/18 04:54:16;;;;;;;77.80;24.88;;;;;;;6.83;100.00;103927.00;5212821;28;20094;-73
2021/12/18 04:56:46;;;;;;;85.40;25.88;;;;;;;6.84;100.00;103931.41;5200181;28;20586;-73
2021/12/18 04:59:17;;;;;;;79.60;24.15;;;;;;;6.83;100.00;103935.00;5200894;28;20415;-73
2021/12/18 05:01:48;;;;;;;79.45;24.20;;;;;;;6.85;100.00;103929.59;5200011;28;20074;-73
2021/12/18 05:04:19;;;;;;;82.78;25.50;;;;;;;6.84;100.00;103926.06;5200094;28;20036;-73
2021/12/18 05:06:52;;;;;;;76.32;23.63;;;;;;;6.85;100.00;103929.59;5186376;28;20017;-73
2021/12/18 05:09:22;;;;;;;84.88;25.10;;;;;;;6.86;100.00;103928.66;5200319;28;20021;-73
2021/12/18 05:11:53;;;;;;;79.28;24.73;;;;;;;6.86;100.00;103931.31;5200042;28;20032;-73
2021/12/18 05:14:23;;;;;;;89.00;25.83;;;;;;;6.87;100.00;103935.72;5200083;28;20028;-73
2021/12/18 05:16:54;;;;;;;76.90;23.75;;;;;;;6.85;100.00;103929.59;5199706;28;20049;-73
2021/12/18 05:19:24;;;;;;;84.25;25.10;;;;;;;6.84;100.00;103935.88;5200087;28;20363;-73
2021/12/18 05:21:55;;;;;;;86.15;25.23;;;;;;;6.83;100.00;103940.34;5200387;28;20511;-73
2021/12/18 05:24:25;;;;;;;82.50;24.65;;;;;;;6.79;100.00;103933.41;5202351;28;20112;-73
2021/12/18 05:26:57;;;;;;;80.97;25.25;;;;;;;6.81;100.00;103946.66;5203977;28;20501;-72
2021/12/18 05:29:28;;;;;;;76.43;23.45;;;;;;;6.79;100.00;103936.06;5203476;28;20025;-73
2021/12/18 05:31:58;;;;;;;86.88;24.70;;;;;;;6.77;100.00;103945.06;5203955;28;20496;-73
2021/12/18 05:34:36;;;;;;;76.18;22.52;;;;;;;6.73;100.00;103939.00;5203321;28;20036;-73
2021/12/18 05:37:19;;;;;;;88.22;24.05;;;;;;;6.75;100.00;103947.81;5203484;28;20096;-72
2021/12/18 05:39:50;;;;;;;87.68;23.73;;;;;;;6.80;100.00;103953.81;5203597;28;20040;-72
2021/12/18 05:42:20;;;;;;;83.22;22.25;;;;;;;6.78;100.00;103950.34;5202338;28;20025;-73
2021/12/18 05:44:51;;;;;;;88.32;24.20;;;;;;;6.78;100.00;103945.00;5203226;28;20048;-73
2021/12/18 05:47:21;;;;;;;84.03;23.20;;;;;;;6.77;100.00;103939.72;5202379;28;20402;-75
2021/12/18 05:49:52;;;;;;;79.13;22.45;;;;;;;6.77;100.00;103945.91;5203583;28;20095;-78
2021/12/18 05:52:23;;;;;;;76.10;22.25;;;;;;;6.80;100.00;103937.78;5203307;28;20105;-73
2021/12/18 05:54:54;;;;;;;69.28;20.48;;;;;;;6.80;100.00;103945.81;5203266;28;20031;-74
2021/12/18 05:57:24;;;;;;;71.38;20.27;;;;;;;6.80;100.00;103947.59;5203030;28;20022;-72
2021/12/18 05:59:55;;;;;;;71.03;20.80;;;;;;;6.79;100.00;103948.53;5203113;28;20087;-72
2021/12/18 06:02:25;;;;;;;71.43;19.15;;;;;;;6.77;100.00;103942.38;5203642;28;20021;-72
2021/12/18 06:04:56;;;;;;;72.07;19.50;;;;;;;6.74;100.00;103943.41;5202583;28;20061;-72
2021/12/18 06:07:29;;;;;;;72.28;19.80;;;;;;;6.73;100.00;103947.00;5203090;28;20021;-72
2021/12/18 06:10:00;;;;;;;77.10;20.42;;;;;;;6.74;100.00;103938.06;5203066;28;20108;-72
2021/12/18 06:12:31;;;;;;;86.45;24.58;;;;;;;6.72;100.00;103939.91;5203075;28;20100;-72
2021/12/18 06:15:01;;;;;;;81.28;20.77;;;;;;;6.70;100.00;103939.13;5202591;28;20097;-72
2021/12/18 06:17:32;;;;;;;78.25;20.25;;;;;;;6.70;100.00;103941.78;5202641;28;20018;-72
2021/12/18 06:20:02;;;;;;;72.80;20.65;;;;;;;6.69;100.00;103945.41;5201566;28;20027;-72
2021/12/18 06:22:33;;;;;;;82.70;20.02;;;;;;;6.70;100.00;103944.47;5202744;28;20646;-72
2021/12/18 06:25:04;;;;;;;78.13;20.30;;;;;;;6.69;100.00;103943.59;5202628;28;21232;-72
2021/12/18 06:27:34;;;;;;;84.82;21.35;;;;;;;6.69;100.00;103940.94;5202633;28;20025;-73
2021/12/18 06:30:06;;;;;;;92.53;21.58;;;;;;;6.68;100.00;103941.88;5202393;28;20037;-73
2021/12/18 06:32:37;;;;;;;95.10;22.10;;;;;;;6.67;100.00;103940.09;5202779;28;20411;-74
2021/12/18 06:35:09;;;;;;;97.28;22.15;;;;;;;6.67;100.00;103934.78;5201828;28;20114;-73
2021/12/18 06:37:39;;;;;;;87.57;21.05;;;;;;;6.67;100.00;103941.91;5202790;28;20034;-73
2021/12/18 06:40:10;;;;;;;86.97;21.85;;;;;;;6.67;100.00;103941.91;5201342;28;20025;-72
2021/12/18 06:42:42;;;;;;;89.60;21.50;;;;;;;6.68;100.00;103941.00;5202190;28;20061;-72
2021/12/18 06:45:13;;;;;;;91.18;21.90;;;;;;;6.67;100.00;103940.09;5202081;28;20424;-73
2021/12/18 06:47:44;;;;;;;100.57;22.77;;;;;;;6.68;100.00;103935.66;5201219;28;20025;-72
2021/12/18 06:50:14;;;;;;;93.88;22.50;;;;;;;6.67;100.00;103941.91;5202254;28;20116;-73
2021/12/18 06:52:46;;;;;;;106.10;22.17;;;;;;;6.69;100.00;103942.72;5202208;28;20034;-73
2021/12/18 06:55:16;;;;;;;103.03;23.95;;;;;;;6.71;100.00;103947.06;5201556;28;20036;-72
2021/12/18 06:57:47;;;;;;;101.50;24.42;;;;;;;6.71;100.00;103948.84;5202259;28;20409;-73
2021/12/18 07:00:20;;;;;;;104.88;22.20;;;;;;;6.73;100.00;103941.69;5202003;28;20033;-73
2021/12/18 07:02:50;;;;;;;109.55;23.75;;;;;;;6.73;100.00;103941.69;5202145;28;20039;-73
2021/12/18 07:05:21;;;;;;;115.43;25.90;;;;;;;6.73;100.00;103945.22;5201099;28;20428;-73
2021/12/18 07:07:52;;;;;;;113.82;24.63;;;;;;;6.73;100.00;103942.53;5201963;28;20524;-73
2021/12/18 07:10:22;;;;;;;118.68;23.80;;;;;;;6.69;100.00;103938.25;5201795;28;20405;-73
2021/12/18 07:12:53;;;;;;;106.90;22.80;;;;;;;6.66;100.00;103938.38;5201502;28;20083;-71
2021/12/18 07:15:23;;;;;;;102.15;22.25;;;;;;;6.65;100.00;103938.44;5201506;28;20118;-72
2021/12/18 07:17:54;;;;;;;122.43;23.58;;;;;;;6.66;100.00;103945.53;5201038;28;20435;-73
2021/12/18 07:20:25;;;;;;;107.85;23.23;;;;;;;6.64;100.00;103936.72;5189741;28;20030;-71
2021/12/18 07:22:55;;;;;;;109.45;23.25;;;;;;;6.59;100.00;103944.06;5201453;28;20033;-72
2021/12/18 07:25:27;;;;;;;112.28;22.08;;;;;;;6.59;100.00;103936.91;5201172;28;20029;-72
2021/12/18 07:27:58;;;;;;;101.28;21.33;;;;;;;6.59;100.00;103938.72;5201217;28;20112;-72
2021/12/18 07:30:28;;;;;;;101.47;21.35;;;;;;;6.60;100.00;103932.44;5200764;28;20113;-72
2021/12/18 07:32:59;;;;;;;115.25;24.85;;;;;;;6.60;100.00;103933.31;5200885;28;20025;-72
2021/12/18 07:35:29;;;;;;;108.05;22.38;;;;;;;6.62;100.00;103936.78;5199492;28;20044;-73
2021/12/18 07:38:00;;;;;;;96.65;20.83;;;;;;;6.55;100.00;103943.31;5182756;28;20029;-73
2021/12/18 07:40:31;;;;;;;114.25;21.48;;;;;;;6.48;100.00;103934.72;5192324;28;20033;-73
2021/12/18 07:43:02;;;;;;;109.72;22.58;;;;;;;6.50;100.00;103939.97;5199185;28;20029;-73
2021/12/18 07:45:34;;;;;;;119.07;22.45;;;;;;;6.45;100.00;103939.28;5192736;28;20071;-73
2021/12/18 07:48:05;;;;;;;111.63;22.83;;;;;;;6.42;100.00;103945.59;5198264;28;20732;-73
2021/12/18 07:50:36;;;;;;;119.63;23.13;;;;;;;6.45;100.00;103948.16;5198498;28;20052;-73
2021/12/18 07:53:06;;;;;;;99.03;22.20;;;;;;;6.44;100.00;103942.91;5209747;28;20017;-73
2021/12/18 07:55:38;;;;;;;116.82;22.67;;;;;;;6.43;100.00;103944.69;5199626;28;20025;-72
2021/12/18 07:58:08;;;;;;;122.65;23.92;;;;;;;6.43;100.00;103949.16;5198790;28;20100;-73
2021/12/18 08:00:39;;;;;;;116.72;24.23;;;;;;;6.41;100.00;103949.22;5199355;28;20426;-74
2021/12/18 08:03:09;;;;;;;105.22;21.40;;;;;;;6.42;100.00;103950.94;5199294;28;20561;-73
2021/12/18 08:05:40;;;;;;;112.80;21.70;;;;;;;6.43;100.00;103952.69;5190756;28;20433;-73
2021/12/18 08:08:10;;;;;;;101.90;20.27;;;;;;;6.43;100.00;103954.50;5193644;28;20086;-72
2021/12/18 08:10:41;;;;;;;81.07;18.80;;;;;;;6.41;100.00;103957.22;5199068;28;20064;-73
2021/12/18 08:13:11;;;;;;;91.18;19.13;;;;;;;6.43;100.00;103958.03;5198684;28;20025;-73
2021/12/18 08:15:42;;;;;;;85.28;15.85;;;;;;;6.40;100.00;103957.28;5197633;28;20505;-74
2021/12/18 08:18:12;;;;;;;78.13;16.17;;;;;;;6.40;100.00;103960.81;5198825;28;20158;-74
2021/12/18 08:20:43;;;;;;;71.72;18.23;;;;;;;6.39;100.00;103959.09;5199397;28;20428;-73
2021/12/18 08:23:13;;;;;;;75.03;16.77;;;;;;;6.42;100.00;103960.75;5199323;28;20032;-73
2021/12/18 08:25:44;;;;;;;69.70;16.30;;;;;;;6.42;100.00;103963.41;5198618;28;20409;-73
2021/12/18 08:28:14;;;;;;;65.00;15.73;;;;;;;6.44;100.00;103958.91;5199271;28;20025;-73
2021/12/18 08:30:45;;;;;;;66.95;14.98;;;;;;;6.42;100.00;103961.59;5198642;28;20496;-73
2021/12/18 08:33:15;;;;;;;67.88;15.07;;;;;;;6.45;100.00;103963.28;5199241;28;20079;-73
2021/12/18 08:35:46;;;;;;;65.28;13.88;;;;;;;6.48;100.00;103974.72;5198288;28;20101;-73
2021/12/18 08:38:16;;;;;;;58.50;14.35;;;;;;;6.49;100.00;103970.25;5198966;28;20075;-73
2021/12/18 08:40:49;;;;;;;65.10;14.18;;;;;;;6.51;100.00;103965.69;5198763;28;20022;-73
2021/12/18 08:43:19;;;;;;;53.22;14.10;;;;;;;6.53;100.00;103960.31;5198696;28;20040;-73
2021/12/18 08:45:50;;;;;;;66.45;13.45;;;;;;;6.51;100.00;103959.50;5198167;28;20021;-73
2021/12/18 08:48:21;;;;;;;56.42;14.35;;;;;;;6.58;100.00;103966.34;5198971;28;20021;-74
2021/12/18 08:50:52;;;;;;;49.78;13.25;;;;;;;6.57;100.00;103967.25;5197941;28;20029;-75
2021/12/18 08:53:22;;;;;;;49.22;11.90;;;;;;;6.55;100.00;103966.44;5198875;28;20115;-74
2021/12/18 08:55:53;;;;;;;49.78;12.80;;;;;;;6.55;100.00;103961.13;5197723;28;20084;-74
2021/12/18 08:58:24;;;;;;;53.17;12.05;;;;;;;6.58;100.00;103956.53;5199995;28;20501;-75
2021/12/18 09:00:54;;;;;;;50.65;12.90;;;;;;;6.61;100.00;103958.19;5203128;28;20439;-75
2021/12/18 09:03:25;;;;;;;46.72;11.63;;;;;;;6.63;100.00;103959.88;5201722;28;20079;-75
2021/12/18 09:05:56;;;;;;;50.65;12.95;;;;;;;6.66;100.00;103956.19;5202047;28;20051;-74
2021/12/18 09:08:26;;;;;;;46.22;11.77;;;;;;;6.64;100.00;103960.75;5202013;28;20091;-74
2021/12/18 09:10:57;;;;;;;47.47;14.23;;;;;;;6.66;100.00;103951.72;5202784;28;20017;-75
2021/12/18 09:13:27;;;;;;;48.05;12.55;;;;;;;6.69;100.00;103956.94;5202614;28;20056;-73
2021/12/18 09:15:58;;;;;;;62.88;14.52;;;;;;;6.72;100.00;103956.78;5196208;28;20116;-74
2021/12/18 09:18:28;;;;;;;54.33;13.68;;;;;;;6.77;100.00;103956.59;5202357;28;20017;-73
2021/12/18 09:20:59;;;;;;;68.85;15.50;;;;;;;6.74;100.00;103962.94;5200747;28;20140;-74
2021/12/18 09:23:29;;;;;;;59.83;15.20;;;;;;;6.78;100.00;103960.13;5202506;28;20028;-73
2021/12/18 09:26:00;;;;;;;66.38;14.43;;;;;;;6.77;100.00;103966.41;5201642;28;20057;-74
2021/12/18 09:28:31;;;;;;;69.75;15.80;;;;;;;6.79;100.00;103972.56;5202029;28;20017;-72
2021/12/18 09:31:02;;;;;;;72.18;16.30;;;;;;;6.81;100.00;103954.66;5201500;28;20029;-75
2021/12/18 09:33:33;;;;;;;63.88;15.73;;;;;;;6.86;100.00;103963.34;5200688;28;20401;-74
2021/12/18 09:36:03;;;;;;;67.35;17.23;;;;;;;6.90;100.00;103963.16;5200006;28;20113;-75
2021/12/18 09:38:34;;;;;;;72.80;17.65;;;;;;;6.94;100.00;103961.22;5201218;28;20594;-76
2021/12/18 09:41:06;;;;;;;58.40;16.98;;;;;;;6.95;100.00;103965.63;5202055;28;20033;-74
2021/12/18 09:43:37;;;;;;;69.53;15.68;;;;;;;6.97;100.00;103967.28;5201488;28;20050;-75
2021/12/18 09:46:10;;;;;;;68.18;16.42;;;;;;;6.99;100.00;103967.22;5201081;28;20055;-76
2021/12/18 09:48:43;;;;;;;72.07;17.38;;;;;;;6.99;100.00;103970.75;5201827;28;20079;-76
2021/12/18 09:54:05;;;;;;;69.15;15.93;;;;;;;7.05;100.00;103971.44;5199821;28;20412;-75
2021/12/18 09:56:35;;;;;;;59.05;14.65;;;;;;;7.03;100.00;103970.59;5200900;28;20021;-76
2021/12/18 09:59:06;;;;;;;66.03;16.13;;;;;;;7.04;100.00;103972.38;5201622;28;20032;-74
2021/12/18 10:01:37;;;;;;;59.28;14.20;;;;;;;7.02;100.00;103961.75;5201298;28;20055;-76
2021/12/18 10:04:25;;;;;;;65.40;15.35;;;;;;;7.01;100.00;103968.00;5200890;28;20059;-76
2021/12/18 10:06:58;;;;;;;59.90;15.25;;;;;;;6.98;100.00;103976.19;5199831;28;20025;-76
2021/12/18 10:09:33;;;;;;;61.55;14.50;;;;;;;6.97;100.00;103961.06;5200524;28;20088;-75
2021/12/18 10:12:14;;;;;;;65.43;17.33;;;;;;;6.90;100.00;103965.81;5200980;28;20021;-75
2021/12/18 10:14:48;;;;;;;65.57;14.40;;;;;;;6.92;100.00;103963.94;5199232;28;20025;-75
2021/12/18 10:17:39;;;;;;;73.67;14.17;;;;;;;6.93;100.00;103957.69;5200954;28;20453;-75
2021/12/18 10:20:09;;;;;;;64.40;14.18;;;;;;;6.96;100.00;103962.88;5200822;28;20272;-75
2021/12/18 10:22:54;;;;;;;59.17;13.73;;;;;;;6.99;100.00;103965.44;5200156;28;20144;-74
2021/12/18 10:25:28;;;;;;;59.20;14.07;;;;;;;6.97;100.00;103956.59;5199787;28;20037;-75
2021/12/18 10:28:04;;;;;;;56.57;13.43;;;;;;;7.00;100.00;103955.63;5201217;28;20018;-75
2021/12/18 10:30:34;;;;;;;;;;;;;;;6.93;100.00;103960.38;5201673;28;20032;-79
2021/12/18 10:33:08;;;;;;;48.63;13.32;;;;;;;6.93;100.00;103949.69;5200987;28;19909;-75
2021/12/18 10:35:58;;;;;;;48.83;12.27;;;;;;;6.97;100.00;103945.91;5200047;28;20049;-76
2021/12/18 10:38:45;;;;;;;48.35;11.68;;;;;;;6.97;100.00;103945.91;5199649;28;20029;-75
2021/12/18 10:41:36;;;;;;;42.53;12.05;;;;;;;6.99;100.00;103936.06;5200704;28;20033;-76
2021/12/18 10:44:09;;;;;;;53.70;13.20;;;;;;;7.04;100.00;103941.19;5201937;28;20048;-75
2021/12/18 10:46:42;;;;;;;62.03;13.02;;;;;;;7.05;100.00;103936.72;5203623;28;20108;-75
2021/12/18 10:49:15;;;;;;;45.60;10.75;;;;;;;7.00;100.00;103937.78;5200230;28;20025;-75
2021/12/18 10:51:48;;;;;;;51.65;11.55;;;;;;;7.01;100.00;103931.50;5200716;28;20021;-76
2021/12/18 10:54:22;;;;;;;46.58;12.60;;;;;;;7.04;100.00;103927.00;5200165;28;20034;-77
2021/12/18 10:56:55;;;;;;;51.75;12.73;;;;;;;7.07;100.00;103925.03;5200091;28;20037;-76
2021/12/18 10:59:31;;;;;;;56.03;12.40;;;;;;;7.10;100.00;103922.22;5200728;28;20021;-76
2021/12/18 11:02:05;;;;;;;54.55;13.75;;;;;;;7.13;100.00;103931.88;5199460;28;20021;-76
2021/12/18 11:04:39;;;;;;;55.58;13.85;;;;;;;7.17;100.00;103918.34;5200203;28;20033;-75
2021/12/18 11:07:30;;;;;;;58.03;12.63;;;;;;;7.20;100.00;103917.34;5199710;28;20439;-76
2021/12/18 11:10:39;;;;;;;57.88;13.52;;;;;;;7.21;100.00;103921.75;5200308;28;20029;-75
2021/12/18 11:15:59;;;;;;;65.45;16.10;;;;;;;7.28;100.00;103917.88;5199562;28;20041;-75
2021/12/18 11:18:31;;;;;;;59.97;14.85;;;;;;;7.34;100.00;103919.41;5200019;28;20363;-75
2021/12/18 11:21:02;;;;;;;59.53;13.95;;;;;;;7.36;100.00;103914.84;5199774;28;20022;-75
2021/12/18 11:23:42;;;;;;;59.38;14.15;;;;;;;7.35;100.00;103913.97;5199661;28;20100;-75
2021/12/18 11:26:14;;;;;;;45.40;12.27;;;;;;;7.33;100.00;103907.84;5198932;28;20029;-75
2021/12/18 11:28:48;;;;;;;51.50;13.40;;;;;;;7.34;100.00;103912.25;5199866;28;20021;-75
2021/12/18 11:31:19;;;;;;;50.55;13.50;;;;;;;7.34;100.00;103906.91;5199424;28;20021;-75
2021/12/18 11:33:50;;;;;;;49.70;12.90;;;;;;;7.35;100.00;103908.63;5199790;28;20033;-76
2021/12/18 11:36:21;;;;;;;46.53;12.88;;;;;;;7.34;100.00;103906.03;5197083;28;20033;-75
2021/12/18 11:38:53;;;;;;;47.17;13.30;;;;;;;7.31;100.00;103908.84;5199120;28;20029;-74
2021/12/18 11:41:24;;;;;;;52.35;13.20;;;;;;;7.27;100.00;103906.31;5198343;28;20033;-75
2021/12/18 11:43:54;;;;;;;44.90;11.88;;;;;;;7.28;100.00;103896.50;5198183;28;20549;-76
2021/12/18 11:46:46;;;;;;;44.97;10.70;;;;;;;7.31;100.00;103896.34;5199073;28;20163;-74
2021/12/18 11:49:19;;;;;;;37.42;10.63;;;;;;;7.31;100.00;103892.81;5199575;28;20112;-76
2021/12/18 11:52:03;;;;;;;37.80;9.65;;;;;;;7.30;100.00;103889.28;5200248;28;20449;-74
2021/12/18 11:54:54;;;;;;;35.25;10.18;;;;;;;7.32;100.00;103894.53;5209818;28;20104;-75
2021/12/18 12:00:43;;;;;;;43.15;12.18;;;;;;;7.33;100.00;103886.47;5199251;28;20104;-75
2021/12/18 12:03:44;;;;;;;38.40;10.88;;;;;;;7.37;100.00;103879.16;5198936;28;20025;-74
2021/12/18 12:06:35;;;;;;;50.35;12.20;;;;;;;7.25;100.00;103883.28;5197183;28;20061;-75
2021/12/18 12:09:28;;;;;;;48.72;12.85;;;;;;;7.27;100.00;103887.59;5188518;28;20128;-75
2021/12/18 12:12:04;;;;;;;48.83;12.10;;;;;;;7.28;100.00;103880.50;5198738;28;20362;-75
2021/12/18 12:14:53;;;;;;;52.08;13.50;;;;;;;7.30;100.00;103878.59;5181159;28;20039;-75
2021/12/18 12:17:27;;;;;;;51.95;12.57;;;;;;;7.28;100.00;103880.50;5198910;28;20689;-75
2021/12/18 12:20:03;;;;;;;54.83;12.67;;;;;;;7.30;100.00;103878.59;5197830;28;20130;-75
2021/12/18 12:22:35;;;;;;;40.55;11.88;;;;;;;7.31;100.00;103872.31;5198266;28;20029;-75
2021/12/18 12:25:08;;;;;;;51.53;13.48;;;;;;;7.31;100.00;103868.78;5197189;28;20477;-75
2021/12/18 12:27:42;;;;;;;52.60;14.30;;;;;;;7.28;100.00;103861.78;5191961;28;20041;-75
2021/12/18 12:30:34;;;;;;;54.83;13.57;;;;;;;7.26;100.00;103874.34;5192155;28;20710;-75
2021/12/18 12:33:07;;;;;;;55.88;14.30;;;;;;;7.23;100.00;103863.81;5201721;28;20029;-75